createdAt,value
2019-03-01T00:02:06.792Z,54.05
2019-03-01T00:06:11.501Z,53.70
2019-03-01T00:10:01.683Z,53.70
2019-03-01T00:14:07.953Z,53.85
2019-03-01T00:18:19.430Z,53.93
2019-03-01T00:21:31.328Z,54.10
2019-03-01T00:25:24.568Z,54.53
2019-03-01T00:28:58.184Z,54.71
2019-03-01T00:32:51.720Z,53.84
2019-03-01T00:36:06.649Z,53.83
2019-03-01T00:39:34.193Z,53.88
2019-03-01T00:43:24.505Z,53.69
2019-03-01T00:46:14.454Z,53.85
2019-03-01T00:49:04.218Z,53.78
2019-03-01T00:51:54.289Z,53.77
2019-03-01T00:54:44.629Z,53.81
2019-03-01T00:57:34.155Z,53.71
2019-03-01T01:00:32.887Z,53.66
2019-03-01T01:03:22.452Z,53.60
2019-03-01T01:06:12.446Z,53.68
2019-03-01T01:09:02.327Z,53.70
2019-03-01T01:11:53.751Z,53.91
2019-03-01T01:14:43.401Z,53.66
2019-03-01T01:17:33.202Z,53.38
2019-03-01T01:20:23.441Z,53.30
2019-03-01T01:23:13.355Z,53.10
2019-03-01T01:26:03.291Z,53.00
2019-03-01T01:28:52.816Z,52.92
2019-03-01T01:31:42.826Z,52.75
2019-03-01T01:34:33.263Z,52.72
2019-03-01T01:37:23.522Z,52.57
2019-03-01T01:40:13.417Z,52.44
2019-03-01T01:43:03.101Z,52.33
2019-03-01T01:45:53.178Z,52.33
2019-03-01T01:48:43.380Z,52.19
2019-03-01T01:51:32.970Z,52.21
2019-03-01T01:54:23.208Z,52.21
2019-03-01T01:57:12.976Z,52.22
2019-03-01T02:00:02.565Z,52.16
2019-03-01T02:02:54.099Z,52.36
2019-03-01T02:05:44.178Z,52.36
2019-03-01T02:08:33.866Z,52.40
2019-03-01T02:11:24.625Z,52.26
2019-03-01T02:14:14.252Z,52.23
2019-03-01T02:17:04.105Z,52.22
2019-03-01T02:19:54.562Z,52.75
2019-03-01T02:22:44.813Z,52.48
2019-03-01T02:25:34.611Z,52.85
2019-03-01T02:28:24.553Z,52.58
2019-03-01T02:31:15.787Z,52.64
2019-03-01T02:34:05.920Z,52.53
2019-03-01T02:36:55.577Z,52.61
2019-03-01T02:39:45.404Z,52.41
2019-03-01T02:42:35.518Z,52.70
2019-03-01T02:45:25.727Z,52.68
2019-03-01T02:48:15.206Z,52.75
2019-03-01T02:51:05.152Z,52.70
2019-03-01T02:53:55.264Z,52.57
2019-03-01T02:56:45.163Z,52.68
2019-03-01T02:59:34.866Z,52.74
2019-03-01T03:02:24.739Z,52.66
2019-03-01T03:05:14.779Z,52.63
2019-03-01T03:08:09.124Z,52.77
2019-03-01T03:10:59.299Z,52.64
2019-03-01T03:13:49.209Z,52.77
2019-03-01T03:16:40.683Z,52.83
2019-03-01T03:19:30.789Z,52.76
2019-03-01T03:22:20.358Z,52.95
2019-03-01T03:25:10.416Z,53.08
2019-03-01T03:28:00.229Z,53.12
2019-03-01T03:30:50.451Z,53.21
2019-03-01T03:33:40.261Z,53.13
2019-03-01T03:36:29.848Z,53.31
2019-03-01T03:39:20.280Z,53.12
2019-03-01T03:42:10.663Z,53.20
2019-03-01T03:45:00.408Z,53.47
2019-03-01T03:47:50.812Z,53.47
2019-03-01T03:50:40.681Z,53.47
2019-03-01T03:53:30.527Z,53.34
2019-03-01T03:56:20.624Z,53.51
2019-03-01T03:59:10.941Z,53.61
2019-03-01T04:02:00.975Z,53.72
2019-03-01T04:04:51.379Z,53.81
2019-03-01T04:07:41.713Z,53.97
2019-03-01T04:10:31.490Z,54.19
2019-03-01T04:13:21.413Z,53.99
2019-03-01T04:16:11.263Z,53.97
2019-03-01T04:19:01.248Z,54.00
2019-03-01T04:21:52.078Z,53.99
2019-03-01T04:24:42.250Z,54.15
2019-03-01T04:27:32.147Z,54.05
2019-03-01T04:30:22.501Z,54.39
2019-03-01T04:33:12.294Z,54.34
2019-03-01T04:36:02.333Z,54.21
2019-03-01T04:38:51.949Z,54.29
2019-03-01T04:41:41.550Z,54.40
2019-03-01T04:44:31.120Z,54.26
2019-03-01T04:47:20.985Z,54.27
2019-03-01T04:50:12.091Z,54.29
2019-03-01T04:53:02.130Z,54.21
2019-03-01T04:55:52.560Z,54.44
2019-03-01T04:58:42.272Z,54.64
2019-03-01T05:01:31.844Z,54.42
2019-03-01T05:04:21.645Z,54.78
2019-03-01T05:07:11.417Z,54.78
2019-03-01T05:10:01.665Z,55.00
2019-03-01T05:12:51.479Z,55.34
2019-03-01T05:15:41.483Z,55.03
2019-03-01T05:18:31.876Z,55.00
2019-03-01T05:21:21.764Z,55.05
2019-03-01T05:24:11.525Z,55.04
2019-03-01T05:27:01.239Z,55.14
2019-03-01T05:29:50.309Z,55.44
2019-03-01T05:32:40.199Z,55.78
2019-03-01T05:35:30.118Z,55.90
2019-03-01T05:38:22.029Z,56.23
2019-03-01T05:41:12.379Z,56.13
2019-03-01T05:44:02.039Z,56.10
2019-03-01T05:46:51.778Z,55.99
2019-03-01T05:49:41.517Z,56.03
2019-03-01T05:52:31.624Z,56.16
2019-03-01T05:55:22.078Z,56.17
2019-03-01T05:58:35.964Z,56.13
2019-03-01T06:01:34.874Z,56.22
2019-03-01T06:04:37.853Z,56.26
2019-03-01T06:08:35.779Z,56.58
2019-03-01T06:11:53.156Z,56.46
2019-03-01T06:15:03.812Z,56.29
2019-03-01T06:18:35.996Z,56.80
2019-03-01T06:22:11.760Z,56.80
2019-03-01T06:25:31.726Z,56.79
2019-03-01T06:28:58.696Z,56.83
2019-03-01T06:32:21.139Z,56.93
2019-03-01T06:35:48.375Z,57.14
2019-03-01T06:39:35.773Z,56.97
2019-03-01T06:43:07.687Z,57.04
2019-03-01T06:46:33.553Z,57.69
2019-03-01T06:49:28.340Z,57.50
2019-03-01T06:52:20.388Z,57.71
2019-03-01T06:55:26.174Z,57.86
2019-03-01T06:58:36.763Z,57.92
2019-03-01T07:01:37.334Z,58.07
2019-03-01T07:04:26.991Z,58.50
2019-03-01T07:07:16.648Z,58.13
2019-03-01T07:10:07.258Z,58.48
2019-03-01T07:12:57.301Z,58.72
2019-03-01T07:15:47.303Z,58.43
2019-03-01T07:18:37.110Z,58.66
2019-03-01T07:21:27.172Z,58.74
2019-03-01T07:24:17.109Z,58.61
2019-03-01T07:27:07.329Z,58.88
2019-03-01T07:29:57.353Z,58.98
2019-03-01T07:32:48.239Z,59.27
2019-03-01T07:35:38.079Z,59.17
2019-03-01T07:38:27.838Z,59.04
2019-03-01T07:41:17.819Z,59.91
2019-03-01T07:44:08.946Z,59.66
2019-03-01T07:46:59.136Z,59.19
2019-03-01T07:49:48.969Z,59.32
2019-03-01T07:52:38.369Z,59.55
2019-03-01T07:55:29.461Z,59.43
2019-03-01T07:58:21.663Z,59.71
2019-03-01T08:01:11.739Z,59.35
2019-03-01T08:04:01.555Z,59.44
2019-03-01T08:06:51.581Z,59.67
2019-03-01T08:09:44.922Z,59.55
2019-03-01T08:12:33.598Z,59.32
2019-03-01T08:15:23.654Z,59.35
2019-03-01T08:18:13.849Z,59.43
2019-03-01T08:21:06.286Z,59.35
2019-03-01T08:23:55.386Z,59.18
2019-03-01T08:26:46.176Z,59.40
2019-03-01T08:29:36.202Z,59.21
2019-03-01T08:32:27.483Z,59.20
2019-03-01T08:35:17.623Z,59.09
2019-03-01T08:38:07.861Z,59.02
2019-03-01T08:40:57.150Z,58.95
2019-03-01T08:43:48.160Z,58.83
2019-03-01T08:46:42.122Z,58.95
2019-03-01T08:49:31.269Z,58.90
2019-03-01T08:52:21.083Z,58.77
2019-03-01T08:55:13.578Z,58.78
2019-03-01T08:58:06.857Z,58.81
2019-03-01T09:00:59.685Z,58.71
2019-03-01T09:03:52.749Z,58.66
2019-03-01T09:06:42.753Z,58.47
2019-03-01T09:09:32.239Z,58.29
2019-03-01T09:12:22.006Z,58.23
2019-03-01T09:15:14.098Z,57.89
2019-03-01T09:18:03.564Z,57.63
2019-03-01T09:20:53.329Z,57.24
2019-03-01T09:23:43.112Z,56.99
2019-03-01T09:26:32.704Z,56.67
2019-03-01T09:29:22.849Z,56.47
2019-03-01T09:32:12.649Z,56.28
2019-03-01T09:35:24.129Z,56.09
2019-03-01T09:38:14.023Z,55.48
2019-03-01T09:41:04.545Z,54.81
2019-03-01T09:43:59.558Z,54.58
2019-03-01T09:46:48.678Z,54.18
2019-03-01T09:49:38.547Z,53.74
2019-03-01T09:52:28.739Z,53.39
2019-03-01T09:55:18.728Z,53.24
2019-03-01T09:58:08.820Z,52.88
2019-03-01T10:01:04.841Z,52.52
2019-03-01T10:03:56.163Z,52.56
2019-03-01T10:06:45.739Z,52.43
2019-03-01T10:09:36.205Z,52.33
2019-03-01T10:12:26.207Z,52.29
2019-03-01T10:15:16.088Z,52.20
2019-03-01T10:18:05.999Z,52.12
2019-03-01T10:20:55.890Z,52.11
2019-03-01T10:23:45.450Z,51.97
2019-03-01T10:26:36.635Z,51.87
2019-03-01T10:29:26.822Z,51.65
2019-03-01T10:32:16.995Z,51.49
2019-03-01T10:35:08.560Z,51.43
2019-03-01T10:37:58.530Z,51.43
2019-03-01T10:40:48.605Z,51.50
2019-03-01T10:43:38.454Z,51.78
2019-03-01T10:46:28.278Z,52.27
2019-03-01T10:49:18.166Z,53.24
2019-03-01T10:52:08.089Z,53.84
2019-03-01T10:54:57.802Z,54.19
2019-03-01T10:57:48.226Z,54.29
2019-03-01T11:00:38.269Z,54.73
2019-03-01T11:03:27.770Z,55.06
2019-03-01T11:06:17.531Z,55.41
2019-03-01T11:09:09.071Z,55.57
2019-03-01T11:11:59.326Z,55.91
2019-03-01T11:14:49.054Z,56.26
2019-03-01T11:17:39.028Z,55.98
2019-03-01T11:20:29.215Z,55.95
2019-03-01T11:23:19.188Z,55.88
2019-03-01T11:26:09.271Z,55.60
2019-03-01T11:28:59.111Z,55.39
2019-03-01T11:31:49.134Z,54.99
2019-03-01T11:34:38.901Z,54.91
2019-03-01T11:37:28.988Z,54.57
2019-03-01T11:40:22.414Z,54.52
2019-03-01T11:43:12.766Z,54.13
2019-03-01T11:46:03.182Z,54.20
2019-03-01T11:48:52.772Z,54.09
2019-03-01T11:51:42.639Z,54.12
2019-03-01T11:54:32.424Z,54.14
2019-03-01T11:57:22.351Z,54.14
2019-03-01T12:00:16.830Z,53.95
2019-03-01T12:03:06.248Z,53.14
2019-03-01T12:05:55.675Z,52.85
2019-03-01T12:08:45.545Z,52.55
2019-03-01T12:11:35.797Z,52.43
2019-03-01T12:14:25.777Z,53.09
2019-03-01T12:17:15.986Z,55.48
2019-03-01T12:20:08.144Z,56.88
2019-03-01T12:22:57.902Z,57.84
2019-03-01T12:25:47.905Z,58.26
2019-03-01T12:28:37.712Z,58.81
2019-03-01T12:31:28.116Z,59.32
2019-03-01T12:34:18.172Z,59.89
2019-03-01T12:37:07.852Z,60.47
2019-03-01T12:39:57.525Z,60.47
2019-03-01T12:42:47.818Z,61.21
2019-03-01T12:45:38.261Z,61.55
2019-03-01T12:48:28.093Z,61.73
2019-03-01T12:51:17.855Z,61.83
2019-03-01T12:54:07.723Z,62.78
2019-03-01T12:56:57.282Z,62.55
2019-03-01T12:59:47.681Z,62.69
2019-03-01T13:02:37.182Z,63.06
2019-03-01T13:05:29.201Z,62.91
2019-03-01T13:08:18.316Z,62.84
2019-03-01T13:11:08.848Z,62.83
2019-03-01T13:13:58.643Z,62.58
2019-03-01T13:16:49.019Z,62.82
2019-03-01T13:19:38.336Z,62.90
2019-03-01T13:22:28.656Z,62.67
2019-03-01T13:25:18.517Z,62.51
2019-03-01T13:28:08.524Z,62.51
2019-03-01T13:30:58.180Z,62.43
2019-03-01T13:33:48.478Z,62.36
2019-03-01T13:36:39.580Z,62.26
2019-03-01T13:39:29.665Z,62.25
2019-03-01T13:42:19.503Z,62.25
2019-03-01T13:45:11.941Z,62.25
2019-03-01T13:48:03.309Z,62.03
2019-03-01T13:50:53.859Z,61.83
2019-03-01T13:53:49.046Z,61.90
2019-03-01T13:56:36.057Z,61.95
2019-03-01T13:59:27.194Z,61.62
2019-03-01T14:02:16.830Z,62.45
2019-03-01T14:05:07.993Z,62.01
2019-03-01T14:07:58.020Z,61.95
2019-03-01T14:10:52.005Z,62.33
2019-03-01T14:13:42.473Z,62.68
2019-03-01T14:16:33.081Z,63.10
2019-03-01T14:19:24.678Z,63.16
2019-03-01T14:22:16.103Z,63.07
2019-03-01T14:25:10.390Z,63.74
2019-03-01T14:28:02.110Z,63.34
2019-03-01T14:30:52.214Z,63.59
2019-03-01T14:33:42.517Z,63.58
2019-03-01T14:36:32.317Z,64.19
2019-03-01T14:39:22.162Z,64.60
2019-03-01T14:42:11.858Z,64.49
2019-03-01T14:45:01.919Z,64.54
2019-03-01T14:47:52.030Z,64.99
2019-03-01T14:50:41.903Z,65.38
2019-03-01T14:53:34.699Z,65.17
2019-03-01T14:56:34.632Z,65.03
2019-03-01T14:59:54.042Z,65.12
2019-03-01T15:02:56.510Z,64.82
2019-03-01T15:05:52.070Z,64.88
2019-03-01T15:08:45.454Z,64.65
2019-03-01T15:11:44.353Z,64.51
2019-03-01T15:14:33.942Z,64.29
2019-03-01T15:17:24.226Z,63.97
2019-03-01T15:20:17.267Z,63.63
2019-03-01T15:23:06.348Z,63.81
2019-03-01T15:25:56.677Z,63.45
2019-03-01T15:28:58.732Z,63.67
2019-03-01T15:31:51.066Z,63.54
2019-03-01T15:34:40.599Z,63.73
2019-03-01T15:37:31.006Z,63.52
2019-03-01T15:40:22.482Z,63.54
2019-03-01T15:43:13.882Z,63.41
2019-03-01T15:46:04.977Z,63.49
2019-03-01T15:48:54.954Z,63.39
2019-03-01T15:51:44.899Z,63.26
2019-03-01T15:54:35.920Z,63.19
2019-03-01T15:57:26.813Z,63.52
2019-03-01T16:00:17.296Z,63.67
2019-03-01T16:03:08.318Z,63.57
2019-03-01T16:05:57.810Z,63.71
2019-03-01T16:08:49.032Z,63.92
2019-03-01T16:11:38.977Z,63.90
2019-03-01T16:14:29.305Z,63.86
2019-03-01T16:17:18.673Z,64.18
2019-03-01T16:20:12.702Z,64.14
2019-03-01T16:23:03.253Z,64.44
2019-03-01T16:25:56.143Z,64.00
2019-03-01T16:28:44.401Z,64.70
2019-03-01T16:31:34.306Z,64.33
2019-03-01T16:34:24.111Z,64.13
2019-03-01T16:37:13.781Z,63.95
2019-03-01T16:40:06.896Z,64.20
2019-03-01T16:42:57.068Z,64.39
2019-03-01T16:45:46.934Z,64.35
2019-03-01T16:48:37.002Z,64.13
2019-03-01T16:51:27.371Z,64.37
2019-03-01T16:54:16.968Z,64.39
2019-03-01T16:57:07.079Z,64.61
2019-03-01T16:59:56.883Z,64.66
2019-03-01T17:02:46.508Z,64.66
2019-03-01T17:05:38.711Z,64.90
2019-03-01T17:08:28.012Z,64.85
2019-03-01T17:11:18.113Z,64.86
2019-03-01T17:14:08.048Z,64.96
2019-03-01T17:16:59.662Z,64.93
2019-03-01T17:19:49.204Z,65.27
2019-03-01T17:22:39.148Z,65.55
2019-03-01T17:25:29.086Z,65.74
2019-03-01T17:28:22.820Z,65.84
2019-03-01T17:31:10.521Z,66.37
2019-03-01T17:34:00.339Z,66.84
2019-03-01T17:36:53.339Z,67.20
2019-03-01T17:39:42.920Z,66.91
2019-03-01T17:42:33.430Z,66.67
2019-03-01T17:45:23.873Z,66.79
2019-03-01T17:48:14.763Z,66.61
2019-03-01T17:51:06.156Z,66.45
2019-03-01T17:53:56.406Z,66.27
2019-03-01T17:56:46.261Z,67.57
2019-03-01T17:59:36.198Z,67.30
2019-03-01T18:02:26.039Z,67.08
2019-03-01T18:05:15.979Z,67.36
2019-03-01T18:08:05.933Z,67.03
2019-03-01T18:10:55.526Z,66.88
2019-03-01T18:13:45.216Z,66.77
2019-03-01T18:16:35.067Z,66.16
2019-03-01T18:19:26.658Z,65.84
2019-03-01T18:22:16.115Z,65.87
2019-03-01T18:25:07.841Z,65.98
2019-03-01T18:27:57.884Z,65.59
2019-03-01T18:30:47.825Z,65.83
2019-03-01T18:33:37.877Z,65.53
2019-03-01T18:36:31.520Z,65.56
2019-03-01T18:39:20.880Z,65.49
2019-03-01T18:42:11.219Z,65.52
2019-03-01T18:45:03.576Z,65.50
2019-03-01T18:47:53.310Z,65.52
2019-03-01T18:50:43.420Z,65.46
2019-03-01T18:53:33.363Z,65.26
2019-03-01T18:56:24.925Z,65.27
2019-03-01T18:59:14.554Z,64.99
2019-03-01T19:02:04.976Z,64.82
2019-03-01T19:04:54.830Z,64.64
2019-03-01T19:07:44.367Z,64.52
2019-03-01T19:10:34.475Z,64.33
2019-03-01T19:13:25.657Z,64.25
2019-03-01T19:16:15.725Z,64.13
2019-03-01T19:19:06.101Z,64.22
2019-03-01T19:21:55.997Z,64.27
2019-03-01T19:24:46.832Z,64.20
2019-03-01T19:27:37.455Z,63.84
2019-03-01T19:30:27.450Z,62.33
2019-03-01T19:33:17.665Z,62.55
2019-03-01T19:36:08.131Z,61.74
2019-03-01T19:39:00.377Z,60.80
2019-03-01T19:41:49.629Z,61.12
2019-03-01T19:44:38.923Z,60.84
2019-03-01T19:47:28.333Z,60.98
2019-03-01T19:50:21.817Z,60.85
2019-03-01T19:53:10.657Z,60.53
2019-03-01T19:56:00.439Z,60.39
2019-03-01T19:58:50.302Z,59.32
2019-03-01T20:01:40.062Z,59.61
2019-03-01T20:04:29.865Z,59.69
2019-03-01T20:07:20.807Z,59.58
2019-03-01T20:10:15.104Z,59.64
2019-03-01T20:13:06.255Z,59.70
2019-03-01T20:15:56.307Z,59.64
2019-03-01T20:18:45.845Z,59.93
2019-03-01T20:21:36.946Z,59.40
2019-03-01T20:24:26.730Z,59.50
2019-03-01T20:27:16.491Z,59.40
2019-03-01T20:30:09.753Z,59.20
2019-03-01T20:33:00.057Z,59.19
2019-03-01T20:35:49.729Z,58.90
2019-03-01T20:38:39.909Z,59.02
2019-03-01T20:41:30.210Z,58.83
2019-03-01T20:44:19.949Z,58.46
2019-03-01T20:47:09.406Z,58.46
2019-03-01T20:49:59.246Z,58.50
2019-03-01T20:52:48.587Z,58.37
2019-03-01T20:55:38.482Z,57.93
2019-03-01T20:58:28.183Z,58.08
2019-03-01T21:01:17.731Z,57.82
2019-03-01T21:04:08.003Z,57.65
2019-03-01T21:06:58.047Z,57.54
2019-03-01T21:09:48.099Z,57.32
2019-03-01T21:12:37.515Z,57.42
2019-03-01T21:15:27.131Z,57.43
2019-03-01T21:18:16.923Z,57.41
2019-03-01T21:21:07.799Z,57.22
2019-03-01T21:23:57.650Z,57.34
2019-03-01T21:26:51.254Z,57.37
2019-03-01T21:29:39.956Z,57.08
2019-03-01T21:32:30.654Z,57.18
2019-03-01T21:35:20.637Z,57.05
2019-03-01T21:38:10.666Z,57.01
2019-03-01T21:41:01.636Z,57.01
2019-03-01T21:43:51.964Z,56.99
2019-03-01T21:46:43.219Z,56.50
2019-03-01T21:49:32.745Z,56.52
2019-03-01T21:52:22.972Z,56.52
2019-03-01T21:55:15.522Z,56.51
2019-03-01T21:58:06.663Z,56.35
2019-03-01T22:00:56.541Z,56.37
2019-03-01T22:03:46.417Z,56.39
2019-03-01T22:06:35.881Z,56.33
2019-03-01T22:09:25.902Z,56.24
2019-03-01T22:12:15.801Z,56.36
2019-03-01T22:15:06.478Z,56.33
2019-03-01T22:17:56.943Z,56.33
2019-03-01T22:20:46.377Z,56.28
2019-03-01T22:23:35.736Z,56.32
2019-03-01T22:26:25.999Z,56.35
2019-03-01T22:29:16.057Z,56.22
2019-03-01T22:32:07.369Z,56.03
2019-03-01T22:34:57.196Z,56.14
2019-03-01T22:37:47.753Z,56.40
2019-03-01T22:40:38.359Z,56.16
2019-03-01T22:43:27.767Z,56.20
2019-03-01T22:46:21.079Z,56.41
2019-03-01T22:49:09.316Z,56.38
2019-03-01T22:51:59.505Z,56.34
2019-03-01T22:54:49.876Z,56.29
2019-03-01T22:57:40.201Z,56.32
2019-03-01T23:01:17.295Z,56.37
2019-03-01T23:04:07.830Z,56.42
2019-03-01T23:06:58.154Z,56.53
2019-03-01T23:09:47.906Z,56.56
2019-03-01T23:12:40.532Z,56.47
2019-03-01T23:15:31.893Z,56.55
2019-03-01T23:18:21.495Z,56.56
2019-03-01T23:21:11.332Z,56.52
2019-03-01T23:24:01.145Z,56.46
2019-03-01T23:26:53.620Z,56.36
2019-03-01T23:29:42.417Z,56.39
2019-03-01T23:32:32.584Z,56.44
2019-03-01T23:35:23.017Z,56.46
2019-03-01T23:38:14.913Z,56.35
2019-03-01T23:41:07.777Z,56.52
2019-03-01T23:43:56.573Z,56.59
2019-03-01T23:46:46.431Z,56.80
2019-03-01T23:49:36.384Z,56.81
2019-03-01T23:52:26.168Z,56.99
2019-03-01T23:55:18.998Z,57.06
2019-03-01T23:58:07.828Z,57.19
